createdAt,value
2022-10-01T00:01:15.018Z,9.82
2022-10-01T00:03:41.783Z,9.43
2022-10-01T00:06:13.949Z,8.75
2022-10-01T00:08:43.357Z,9.50
2022-10-01T00:11:15.756Z,12.50
2022-10-01T00:13:44.203Z,11.82
2022-10-01T00:16:13.489Z,8.20
2022-10-01T00:18:41.321Z,10.60
2022-10-01T00:21:09.519Z,8.27
2022-10-01T00:23:36.708Z,11.70
2022-10-01T00:26:21.103Z,11.15
2022-10-01T00:28:48.720Z,9.13
2022-10-01T00:31:15.809Z,8.95
2022-10-01T00:33:42.651Z,9.15
2022-10-01T00:36:10.319Z,10.90
2022-10-01T00:38:37.778Z,10.43
2022-10-01T00:41:04.732Z,10.80
2022-10-01T00:43:34.233Z,11.02
2022-10-01T00:46:10.762Z,9.45
2022-10-01T00:48:44.388Z,8.95
2022-10-01T00:51:11.570Z,9.00
2022-10-01T00:53:38.370Z,7.65
2022-10-01T00:56:05.211Z,9.05
2022-10-01T00:58:32.024Z,6.32
2022-10-01T01:00:58.528Z,9.73
2022-10-01T01:03:25.178Z,9.65
2022-10-01T01:05:51.580Z,8.32
2022-10-01T01:08:18.287Z,9.13
2022-10-01T01:10:54.172Z,9.75
2022-10-01T01:13:50.231Z,11.55
2022-10-01T01:16:25.739Z,8.90
2022-10-01T01:19:01.992Z,7.80
2022-10-01T01:21:31.742Z,9.55
2022-10-01T01:24:27.179Z,6.82
2022-10-01T01:27:09.093Z,5.95
2022-10-01T01:29:39.759Z,7.18
2022-10-01T01:32:14.782Z,5.72
2022-10-01T01:34:43.603Z,6.78
2022-10-01T01:37:12.000Z,6.45
2022-10-01T01:39:41.485Z,7.30
2022-10-01T01:42:13.954Z,6.80
2022-10-01T01:44:42.214Z,6.75
2022-10-01T01:47:10.403Z,6.55
2022-10-01T01:49:38.787Z,4.95
2022-10-01T01:52:05.040Z,6.68
2022-10-01T01:54:32.182Z,6.82
2022-10-01T01:56:59.211Z,5.80
2022-10-01T01:59:26.605Z,6.57
2022-10-01T02:01:53.052Z,6.75
2022-10-01T02:04:25.652Z,6.65
2022-10-01T02:07:04.072Z,6.32
2022-10-01T02:09:35.550Z,5.63
2022-10-01T02:12:10.085Z,4.95
2022-10-01T02:15:01.166Z,6.13
2022-10-01T02:17:54.578Z,7.90
2022-10-01T02:20:30.146Z,6.00
2022-10-01T02:23:00.631Z,5.18
2022-10-01T02:25:31.546Z,4.82
2022-10-01T02:28:03.749Z,4.30
2022-10-01T02:30:31.839Z,4.03
2022-10-01T02:32:59.959Z,4.95
2022-10-01T02:35:28.427Z,4.40
2022-10-01T02:37:57.591Z,3.70
2022-10-01T02:40:28.316Z,3.55
2022-10-01T02:42:57.817Z,4.68
2022-10-01T02:45:26.107Z,4.70
2022-10-01T02:48:02.319Z,3.40
2022-10-01T02:50:35.054Z,3.55
2022-10-01T02:53:07.195Z,3.63
2022-10-01T02:55:36.726Z,4.90
2022-10-01T02:58:03.236Z,3.15
2022-10-01T03:00:30.045Z,3.63
2022-10-01T03:02:56.425Z,3.80
2022-10-01T03:05:23.122Z,3.97
2022-10-01T03:07:49.552Z,3.38
2022-10-01T03:10:16.460Z,3.97
2022-10-01T03:12:46.480Z,3.72
2022-10-01T03:15:14.542Z,5.05
2022-10-01T03:17:41.013Z,4.55
2022-10-01T03:20:08.222Z,4.45
2022-10-01T03:22:34.593Z,4.32
2022-10-01T03:25:00.974Z,4.30
2022-10-01T03:27:27.369Z,4.45
2022-10-01T03:29:53.748Z,5.07
2022-10-01T03:32:20.474Z,4.35
2022-10-01T03:34:47.166Z,4.03
2022-10-01T03:37:13.594Z,5.38
2022-10-01T03:39:40.113Z,4.70
2022-10-01T03:42:07.035Z,4.40
2022-10-01T03:44:33.912Z,6.05
2022-10-01T03:47:00.494Z,5.80
2022-10-01T03:49:27.280Z,4.65
2022-10-01T03:51:54.090Z,7.07
2022-10-01T03:54:21.563Z,6.32
2022-10-01T03:56:48.766Z,8.00
2022-10-01T03:59:15.128Z,7.18
2022-10-01T04:01:41.495Z,7.15
2022-10-01T04:04:07.965Z,6.13
2022-10-01T04:06:34.333Z,6.85
2022-10-01T04:09:00.865Z,7.65
2022-10-01T04:11:27.840Z,7.88
2022-10-01T04:13:54.253Z,7.30
2022-10-01T04:16:20.725Z,8.75
2022-10-01T04:18:47.179Z,7.90
2022-10-01T04:21:15.467Z,7.53
2022-10-01T04:23:42.105Z,9.45
2022-10-01T04:26:08.575Z,7.57
2022-10-01T04:28:35.124Z,9.27
2022-10-01T04:31:20.214Z,8.00
2022-10-01T04:33:46.742Z,6.43
2022-10-01T04:36:13.147Z,7.80
2022-10-01T04:38:39.492Z,8.85
2022-10-01T04:41:06.245Z,7.70
2022-10-01T04:43:33.043Z,8.32
2022-10-01T04:45:59.536Z,9.13
2022-10-01T04:48:25.934Z,9.30
2022-10-01T04:50:52.316Z,6.55
2022-10-01T04:53:18.799Z,8.75
2022-10-01T04:55:46.529Z,8.65
2022-10-01T04:58:13.020Z,10.38
2022-10-01T05:00:39.432Z,9.48
2022-10-01T05:03:05.917Z,9.25
2022-10-01T05:05:34.767Z,11.55
2022-10-01T05:08:01.834Z,10.50
2022-10-01T05:10:28.302Z,9.00
2022-10-01T05:12:54.766Z,10.27
2022-10-01T05:15:21.230Z,10.02
2022-10-01T05:17:47.584Z,9.48
2022-10-01T05:20:19.357Z,9.55
2022-10-01T05:22:46.842Z,10.27
2022-10-01T05:25:13.305Z,10.77
2022-10-01T05:27:41.037Z,12.77
2022-10-01T05:30:09.449Z,11.13
2022-10-01T05:32:36.116Z,10.18
2022-10-01T05:35:03.495Z,9.52
2022-10-01T05:37:29.892Z,13.35
2022-10-01T05:39:56.258Z,10.73
2022-10-01T05:42:22.629Z,12.25
2022-10-01T05:44:49.960Z,11.95
2022-10-01T05:47:20.541Z,13.80
2022-10-01T05:49:46.914Z,12.10
2022-10-01T05:52:15.480Z,11.25
2022-10-01T05:54:41.858Z,9.77
2022-10-01T05:57:08.318Z,14.07
2022-10-01T05:59:35.317Z,12.13
2022-10-01T06:02:02.084Z,9.93
2022-10-01T06:04:28.547Z,13.57
2022-10-01T06:06:56.020Z,10.57
2022-10-01T06:09:22.472Z,13.38
2022-10-01T06:11:49.227Z,10.82
2022-10-01T06:14:16.224Z,12.48
2022-10-01T06:16:42.760Z,11.23
2022-10-01T06:19:09.165Z,10.20
2022-10-01T06:21:36.072Z,11.63
2022-10-01T06:24:02.774Z,11.82
2022-10-01T06:26:29.225Z,12.82
2022-10-01T06:28:56.547Z,11.57
2022-10-01T06:31:23.212Z,12.98
2022-10-01T06:33:49.673Z,10.63
2022-10-01T06:36:16.031Z,11.25
2022-10-01T06:38:42.986Z,10.23
2022-10-01T06:41:09.905Z,14.70
2022-10-01T06:43:36.259Z,13.57
2022-10-01T06:46:03.946Z,10.57
2022-10-01T06:48:31.308Z,10.23
2022-10-01T06:50:58.313Z,9.43
2022-10-01T06:53:25.262Z,11.35
2022-10-01T06:55:51.644Z,8.95
2022-10-01T06:58:20.945Z,11.57
2022-10-01T07:00:48.424Z,9.18
2022-10-01T07:03:17.230Z,12.38
2022-10-01T07:05:43.668Z,9.20
2022-10-01T07:08:10.401Z,9.68
2022-10-01T07:10:38.034Z,9.90
2022-10-01T07:13:16.496Z,9.77
2022-10-01T07:15:42.947Z,6.82
2022-10-01T07:18:10.093Z,12.68
2022-10-01T07:20:39.673Z,17.35
2022-10-01T07:23:08.588Z,17.73
2022-10-01T07:25:35.038Z,14.38
2022-10-01T07:28:04.532Z,16.30
2022-10-01T07:30:31.819Z,14.20
2022-10-01T07:32:58.566Z,10.88
2022-10-01T07:35:26.126Z,10.07
2022-10-01T07:37:54.924Z,11.45
2022-10-01T07:40:21.683Z,8.15
2022-10-01T07:42:55.672Z,12.13
2022-10-01T07:45:23.034Z,8.00
2022-10-01T07:47:54.244Z,8.95
2022-10-01T07:50:20.884Z,10.38
2022-10-01T07:52:51.681Z,6.45
2022-10-01T07:55:18.568Z,7.00
2022-10-01T07:57:53.037Z,8.75
2022-10-01T08:00:19.981Z,8.13
2022-10-01T08:02:47.785Z,10.85
2022-10-01T08:05:20.286Z,10.65
2022-10-01T08:07:47.428Z,6.80
2022-10-01T08:10:15.173Z,7.10
2022-10-01T08:12:44.402Z,7.82
2022-10-01T08:15:12.829Z,6.88
2022-10-01T08:17:39.426Z,8.70
2022-10-01T08:20:07.798Z,11.43
2022-10-01T08:22:36.549Z,9.07
2022-10-01T08:25:05.866Z,6.32
2022-10-01T08:27:32.284Z,5.53
2022-10-01T08:29:58.727Z,8.55
2022-10-01T08:32:27.377Z,9.50
2022-10-01T08:34:56.748Z,10.13
2022-10-01T08:37:27.141Z,9.88
2022-10-01T08:39:54.568Z,7.28
2022-10-01T08:42:42.264Z,7.72
2022-10-01T08:45:14.950Z,9.77
2022-10-01T08:47:45.780Z,8.82
2022-10-01T08:50:19.376Z,8.93
2022-10-01T08:52:55.657Z,6.47
2022-10-01T08:55:24.772Z,5.80
2022-10-01T08:58:00.668Z,6.35
2022-10-01T09:03:04.018Z,10.10
2022-10-01T09:05:38.363Z,7.82
2022-10-01T09:08:46.580Z,11.20
2022-10-01T09:11:36.959Z,10.70
2022-10-01T09:14:28.387Z,12.30
2022-10-01T09:17:05.432Z,10.27
2022-10-01T09:19:57.476Z,7.78
2022-10-01T09:23:02.933Z,6.15
2022-10-01T09:25:29.936Z,12.02
2022-10-01T09:28:15.800Z,10.43
2022-10-01T09:30:51.190Z,7.47
2022-10-01T09:33:20.290Z,10.93
2022-10-01T09:36:07.791Z,7.28
2022-10-01T09:38:38.627Z,8.63
2022-10-01T09:41:10.769Z,9.15
2022-10-01T09:43:42.513Z,13.40
2022-10-01T09:46:13.470Z,9.82
2022-10-01T09:48:59.356Z,9.60
2022-10-01T09:51:33.989Z,9.48
2022-10-01T09:54:09.302Z,11.32
2022-10-01T09:56:48.039Z,9.38
2022-10-01T09:59:19.633Z,9.23
2022-10-01T10:01:50.352Z,8.48
2022-10-01T10:04:23.536Z,8.98
2022-10-01T10:07:00.211Z,10.57
2022-10-01T10:09:30.634Z,8.32
2022-10-01T10:11:58.806Z,11.18
2022-10-01T10:14:49.039Z,13.68
2022-10-01T10:17:22.460Z,11.48
2022-10-01T10:19:51.805Z,9.70
2022-10-01T10:22:26.505Z,10.55
2022-10-01T10:24:54.302Z,9.85
2022-10-01T10:27:26.659Z,7.68
2022-10-01T10:30:16.261Z,15.07
2022-10-01T10:32:43.886Z,11.98
2022-10-01T10:35:13.674Z,9.48
2022-10-01T10:37:47.321Z,10.50
2022-10-01T10:40:20.247Z,11.10
2022-10-01T10:42:48.900Z,10.13
2022-10-01T10:45:17.645Z,10.45
2022-10-01T10:47:45.835Z,7.93
2022-10-01T10:50:29.803Z,11.07
2022-10-01T10:52:57.020Z,10.60
2022-10-01T10:55:25.158Z,7.00
2022-10-01T10:57:57.268Z,12.02
2022-10-01T11:00:25.882Z,8.43
2022-10-01T11:02:56.807Z,10.45
2022-10-01T11:05:25.973Z,7.88
2022-10-01T11:07:58.526Z,5.90
2022-10-01T11:10:38.321Z,6.28
2022-10-01T11:13:19.690Z,9.20
2022-10-01T11:15:58.423Z,9.20
2022-10-01T11:19:12.853Z,9.05
2022-10-01T11:21:46.705Z,9.07
2022-10-01T11:24:47.353Z,8.48
2022-10-01T11:28:10.626Z,11.48
2022-10-01T11:31:01.857Z,7.25
2022-10-01T11:33:38.713Z,6.40
2022-10-01T11:36:10.734Z,8.70
2022-10-01T11:38:46.796Z,9.05
2022-10-01T11:41:18.974Z,5.43
2022-10-01T11:43:56.381Z,8.10
2022-10-01T11:46:29.429Z,8.85
2022-10-01T11:49:18.869Z,5.95
2022-10-01T11:51:50.027Z,5.80
2022-10-01T11:54:20.928Z,10.10
2022-10-01T11:57:11.954Z,7.78
2022-10-01T11:59:55.518Z,10.43
2022-10-01T12:02:49.888Z,8.07
2022-10-01T12:07:49.478Z,7.15
2022-10-01T12:10:38.753Z,5.35
2022-10-01T12:13:24.000Z,7.78
2022-10-01T12:15:58.019Z,7.43
2022-10-01T12:18:27.375Z,6.53
2022-10-01T12:20:56.214Z,9.02
2022-10-01T12:23:27.294Z,6.38
2022-10-01T12:26:22.165Z,7.63
2022-10-01T12:28:53.596Z,8.25
2022-10-01T12:31:24.872Z,9.38
2022-10-01T12:34:16.322Z,15.20
2022-10-01T12:36:55.768Z,11.32
2022-10-01T12:39:51.428Z,9.35
2022-10-01T12:42:39.636Z,10.45
2022-10-01T12:47:58.509Z,9.18
2022-10-01T12:50:36.636Z,9.50
2022-10-01T12:53:35.461Z,9.30
2022-10-01T12:56:14.016Z,10.25
2022-10-01T12:58:59.480Z,9.43
2022-10-01T13:01:29.592Z,8.30
2022-10-01T13:04:28.032Z,9.63
2022-10-01T13:07:16.091Z,7.93
2022-10-01T13:09:52.171Z,12.05
2022-10-01T13:12:35.719Z,7.00
2022-10-01T13:15:03.109Z,10.90
2022-10-01T13:17:43.521Z,11.55
2022-10-01T13:20:22.131Z,7.65
2022-10-01T13:22:48.511Z,15.43
2022-10-01T13:25:26.652Z,11.02
2022-10-01T13:28:02.038Z,7.57
2022-10-01T13:30:45.144Z,5.13
2022-10-01T13:33:28.833Z,7.60
2022-10-01T13:35:58.744Z,7.97
2022-10-01T13:38:40.158Z,8.10
2022-10-01T13:41:17.068Z,7.40
2022-10-01T13:43:58.186Z,9.32
2022-10-01T13:46:33.355Z,10.45
2022-10-01T13:49:21.540Z,12.75
2022-10-01T13:51:47.944Z,11.80
2022-10-01T13:54:24.213Z,9.38
2022-10-01T13:56:50.580Z,7.80
2022-10-01T13:59:35.582Z,11.20
2022-10-01T14:02:03.099Z,9.95
2022-10-01T14:04:34.271Z,8.02
2022-10-01T14:07:14.328Z,12.05
2022-10-01T14:09:44.995Z,9.40
2022-10-01T14:12:37.752Z,10.57
2022-10-01T14:15:42.684Z,9.27
2022-10-01T14:18:18.653Z,13.10
2022-10-01T14:21:16.307Z,11.18
2022-10-01T14:24:00.908Z,11.98
2022-10-01T14:26:33.161Z,10.45
2022-10-01T14:29:39.342Z,12.80
2022-10-01T14:32:20.878Z,11.73
2022-10-01T14:35:26.029Z,11.60
2022-10-01T14:37:59.430Z,9.68
2022-10-01T14:40:26.488Z,12.23
2022-10-01T14:42:59.194Z,6.72
2022-10-01T14:45:25.629Z,11.00
2022-10-01T14:48:06.327Z,14.68
2022-10-01T14:50:34.265Z,10.40
2022-10-01T14:53:01.470Z,8.90
2022-10-01T14:55:27.977Z,9.80
2022-10-01T14:57:55.667Z,9.68
2022-10-01T15:00:23.209Z,10.48
2022-10-01T15:02:50.651Z,12.35
2022-10-01T15:05:37.387Z,7.63
2022-10-01T15:08:23.366Z,11.48
2022-10-01T15:11:37.443Z,10.52
2022-10-01T15:14:08.294Z,9.68
2022-10-01T15:16:35.202Z,7.25
2022-10-01T15:19:06.748Z,6.88
2022-10-01T15:21:47.621Z,6.38
2022-10-01T15:24:41.154Z,8.40
2022-10-01T15:27:13.609Z,8.50
2022-10-01T15:29:43.695Z,10.48
2022-10-01T15:32:15.145Z,6.63
2022-10-01T15:34:47.778Z,8.68
2022-10-01T15:37:33.711Z,7.45
2022-10-01T15:40:01.201Z,8.27
2022-10-01T15:42:31.137Z,9.57
2022-10-01T15:45:06.689Z,10.15
2022-10-01T15:47:37.524Z,6.88
2022-10-01T15:50:08.820Z,8.23
2022-10-01T15:52:50.796Z,7.95
2022-10-01T15:55:37.444Z,6.53
2022-10-01T15:58:15.110Z,7.07
2022-10-01T16:00:43.844Z,8.77
2022-10-01T16:03:19.586Z,8.18
2022-10-01T16:08:21.345Z,11.98
2022-10-01T16:10:49.170Z,6.28
2022-10-01T16:13:34.051Z,11.63
2022-10-01T16:16:12.885Z,9.23
2022-10-01T16:18:43.099Z,11.38
2022-10-01T16:21:11.020Z,8.32
2022-10-01T16:23:44.032Z,9.90
2022-10-01T16:26:34.263Z,9.10
2022-10-01T16:29:24.086Z,9.35
2022-10-01T16:31:51.134Z,7.63
2022-10-01T16:34:19.404Z,10.57
2022-10-01T16:36:46.332Z,7.55
2022-10-01T16:39:15.734Z,9.63
2022-10-01T16:41:44.671Z,9.48
2022-10-01T16:44:15.714Z,10.02
2022-10-01T16:47:10.491Z,9.02
2022-10-01T16:49:41.819Z,10.23
2022-10-01T16:52:12.297Z,8.30
2022-10-01T16:54:39.264Z,8.85
2022-10-01T16:57:05.671Z,7.82
2022-10-01T16:59:33.684Z,7.75
2022-10-01T17:02:02.118Z,11.07
2022-10-01T17:04:34.065Z,6.88
2022-10-01T17:07:00.695Z,6.30
2022-10-01T17:09:27.085Z,9.27
2022-10-01T17:11:53.885Z,6.18
2022-10-01T17:14:21.229Z,7.10
2022-10-01T17:16:48.512Z,6.30
2022-10-01T17:19:15.023Z,13.05
2022-10-01T17:21:41.878Z,10.57
2022-10-01T17:24:10.803Z,10.02
2022-10-01T17:26:41.625Z,10.98
2022-10-01T17:29:09.453Z,8.73
2022-10-01T17:31:37.635Z,8.07
2022-10-01T17:34:04.785Z,7.82
2022-10-01T17:36:31.744Z,10.55
2022-10-01T17:38:58.718Z,9.40
2022-10-01T17:41:25.355Z,11.35
2022-10-01T17:43:51.749Z,15.43
2022-10-01T17:46:18.582Z,8.80
2022-10-01T17:48:48.562Z,10.25
2022-10-01T17:51:15.686Z,13.65
2022-10-01T17:53:42.916Z,12.02
2022-10-01T17:56:13.168Z,15.07
2022-10-01T17:58:45.230Z,11.90
2022-10-01T18:01:19.489Z,12.70
2022-10-01T18:03:46.100Z,13.70
2022-10-01T18:06:15.112Z,12.80
2022-10-01T18:08:54.667Z,12.82
2022-10-01T18:11:22.883Z,10.20
2022-10-01T18:13:50.762Z,11.52
2022-10-01T18:16:19.186Z,13.20
2022-10-01T18:19:51.786Z,9.23
2022-10-01T18:21:32.794Z,6.80
2022-10-01T18:24:03.995Z,9.63
2022-10-01T18:26:31.161Z,13.68
2022-10-01T18:28:57.520Z,14.50
2022-10-01T18:31:28.385Z,12.50
2022-10-01T18:33:57.548Z,12.55
2022-10-01T18:36:51.668Z,10.68
2022-10-01T18:39:28.966Z,13.10
2022-10-01T18:41:56.475Z,12.73
2022-10-01T18:44:23.241Z,8.55
2022-10-01T18:46:55.156Z,8.60
2022-10-01T18:49:51.545Z,12.73
2022-10-01T18:52:27.583Z,10.88
2022-10-01T18:55:25.337Z,14.57
2022-10-01T18:58:11.061Z,13.73
2022-10-01T19:00:52.330Z,11.90
2022-10-01T19:03:35.215Z,14.00
2022-10-01T19:06:28.170Z,11.10
2022-10-01T19:09:08.327Z,12.63
2022-10-01T19:11:54.145Z,13.75
2022-10-01T19:14:45.016Z,13.73
2022-10-01T19:17:31.316Z,14.88
2022-10-01T19:20:29.997Z,15.98
2022-10-01T19:23:11.240Z,10.82
2022-10-01T19:25:49.637Z,12.20
2022-10-01T19:28:39.732Z,16.15
2022-10-01T19:31:20.863Z,14.80
2022-10-01T19:33:51.684Z,16.85
2022-10-01T19:36:29.525Z,17.10
2022-10-01T19:39:01.096Z,12.00
2022-10-01T19:44:04.762Z,13.10
2022-10-01T19:46:36.075Z,17.38
2022-10-01T19:49:08.847Z,13.43
2022-10-01T19:51:40.038Z,11.20
2022-10-01T19:54:13.522Z,13.90
2022-10-01T19:56:40.633Z,14.35
2022-10-01T19:59:11.190Z,10.85
2022-10-01T20:01:40.894Z,11.65
2022-10-01T20:06:44.423Z,8.48
2022-10-01T20:09:18.649Z,8.68
2022-10-01T20:12:30.884Z,10.45
2022-10-01T20:15:09.783Z,11.35
2022-10-01T20:18:04.053Z,10.98
2022-10-01T20:21:02.929Z,12.95
2022-10-01T20:23:33.229Z,10.30
2022-10-01T20:26:18.756Z,9.85
2022-10-01T20:29:14.037Z,8.77
2022-10-01T20:32:14.464Z,10.02
2022-10-01T20:35:00.460Z,9.38
2022-10-01T20:37:34.794Z,11.10
2022-10-01T20:40:10.466Z,12.88
2022-10-01T20:42:40.210Z,11.10
2022-10-01T20:45:14.865Z,10.13
2022-10-01T20:47:49.174Z,11.30
2022-10-01T20:50:32.346Z,10.65
2022-10-01T20:53:22.405Z,13.25
2022-10-01T20:55:52.774Z,12.32
2022-10-01T20:58:29.829Z,9.57
2022-10-01T21:01:01.875Z,11.05
2022-10-01T21:03:37.642Z,12.85
2022-10-01T21:06:05.451Z,11.32
2022-10-01T21:08:44.649Z,11.68
2022-10-01T21:11:22.423Z,10.52
2022-10-01T21:14:00.801Z,8.77
2022-10-01T21:16:57.871Z,6.88
2022-10-01T21:19:39.466Z,9.65
2022-10-01T21:22:21.907Z,12.57
2022-10-01T21:24:56.692Z,10.30
2022-10-01T21:28:02.097Z,9.15
2022-10-01T21:30:41.657Z,9.10
2022-10-01T21:33:53.241Z,12.23
2022-10-01T21:36:32.899Z,9.35
2022-10-01T21:39:27.477Z,13.10
2022-10-01T21:42:17.065Z,8.00
2022-10-01T21:45:02.205Z,13.82
2022-10-01T21:47:28.475Z,15.13
2022-10-01T21:50:19.634Z,12.80
2022-10-01T21:53:06.825Z,10.73
2022-10-01T21:55:55.610Z,9.63
2022-10-01T21:58:36.220Z,11.00
2022-10-01T22:01:15.927Z,15.25
2022-10-01T22:04:08.640Z,13.77
2022-10-01T22:06:59.191Z,10.63
2022-10-01T22:10:04.449Z,16.27
2022-10-01T22:12:33.483Z,19.55
2022-10-01T22:15:00.798Z,13.73
2022-10-01T22:17:33.124Z,12.40
2022-10-01T22:20:02.234Z,15.15
2022-10-01T22:22:30.996Z,19.27
2022-10-01T22:24:59.488Z,17.65
2022-10-01T22:27:32.074Z,22.90
2022-10-01T22:30:24.282Z,12.95
2022-10-01T22:37:02.081Z,16.88
2022-10-01T22:40:13.795Z,20.17
2022-10-01T22:43:04.580Z,18.25
2022-10-01T22:49:49.431Z,18.48
2022-10-01T22:52:40.099Z,13.88
2022-10-01T22:55:24.592Z,14.07
2022-10-01T22:57:51.273Z,14.23
2022-10-01T23:04:06.665Z,18.05
2022-10-01T23:07:12.619Z,10.25
2022-10-01T23:13:47.522Z,12.52
2022-10-01T23:16:38.308Z,11.00
2022-10-01T23:19:55.057Z,13.25
2022-10-01T23:22:46.444Z,13.73
2022-10-01T23:25:24.538Z,14.68
2022-10-01T23:28:06.226Z,11.75
2022-10-01T23:30:51.740Z,14.77
2022-10-01T23:33:56.630Z,13.07
2022-10-01T23:36:34.236Z,13.80
2022-10-01T23:39:28.919Z,12.90
2022-10-01T23:42:05.608Z,9.63
2022-10-01T23:44:55.102Z,10.38
2022-10-01T23:47:58.208Z,11.15
2022-10-01T23:50:35.463Z,12.13
2022-10-01T23:53:13.670Z,15.65
2022-10-01T23:56:30.123Z,8.65
2022-10-01T23:59:18.998Z,12.02
